sensor_id;sensor_type;location;lat;lon;timestamp;temperature;humidity
56044;DHT22;41912;51.022;3.664;2023-03-23T00:02:05;13.80;99.90
56044;DHT22;41912;51.022;3.664;2023-03-23T00:04:31;13.80;99.90
56044;DHT22;41912;51.022;3.664;2023-03-23T00:06:57;13.80;99.90
56044;DHT22;41912;51.022;3.664;2023-03-23T00:09:22;13.80;99.90
56044;DHT22;41912;51.022;3.664;2023-03-23T00:11:49;13.70;99.90
56044;DHT22;41912;51.022;3.664;2023-03-23T00:14:16;13.70;99.90
56044;DHT22;41912;51.022;3.664;2023-03-23T00:16:42;13.80;99.90
56044;DHT22;41912;51.022;3.664;2023-03-23T00:19:12;13.70;99.90
56044;DHT22;41912;51.022;3.664;2023-03-23T00:21:39;13.70;99.90
56044;DHT22;41912;51.022;3.664;2023-03-23T00:24:15;13.70;99.90
56044;DHT22;41912;51.022;3.664;2023-03-23T00:26:48;13.70;99.90
56044;DHT22;41912;51.022;3.664;2023-03-23T00:29:16;13.70;99.90
56044;DHT22;41912;51.022;3.664;2023-03-23T00:31:44;13.70;99.90
56044;DHT22;41912;51.022;3.664;2023-03-23T00:34:20;13.60;99.90
56044;DHT22;41912;51.022;3.664;2023-03-23T00:36:48;13.60;99.90
56044;DHT22;41912;51.022;3.664;2023-03-23T00:39:14;13.60;99.90
56044;DHT22;41912;51.022;3.664;2023-03-23T00:41:42;13.60;99.90
56044;DHT22;41912;51.022;3.664;2023-03-23T00:44:08;13.60;99.90
56044;DHT22;41912;51.022;3.664;2023-03-23T00:46:34;13.60;99.90
56044;DHT22;41912;51.022;3.664;2023-03-23T00:48:59;13.60;99.90
56044;DHT22;41912;51.022;3.664;2023-03-23T00:51:25;13.50;99.90
56044;DHT22;41912;51.022;3.664;2023-03-23T00:53:51;13.60;99.90
56044;DHT22;41912;51.022;3.664;2023-03-23T00:56:17;13.60;99.90
56044;DHT22;41912;51.022;3.664;2023-03-23T00:58:43;13.50;99.90
56044;DHT22;41912;51.022;3.664;2023-03-23T01:01:08;13.50;99.90
56044;DHT22;41912;51.022;3.664;2023-03-23T01:03:35;13.60;99.90
56044;DHT22;41912;51.022;3.664;2023-03-23T01:06:08;13.60;99.90
56044;DHT22;41912;51.022;3.664;2023-03-23T01:08:41;13.60;99.90
56044;DHT22;41912;51.022;3.664;2023-03-23T01:11:14;13.60;99.90
56044;DHT22;41912;51.022;3.664;2023-03-23T01:13:41;13.60;99.90
56044;DHT22;41912;51.022;3.664;2023-03-23T01:16:08;13.60;99.90
56044;DHT22;41912;51.022;3.664;2023-03-23T01:18:33;13.60;99.90
56044;DHT22;41912;51.022;3.664;2023-03-23T01:21:04;13.60;99.90
56044;DHT22;41912;51.022;3.664;2023-03-23T01:23:32;13.60;99.90
56044;DHT22;41912;51.022;3.664;2023-03-23T01:26:03;13.60;99.90
56044;DHT22;41912;51.022;3.664;2023-03-23T01:28:28;13.60;99.90
56044;DHT22;41912;51.022;3.664;2023-03-23T01:31:06;13.70;99.90
56044;DHT22;41912;51.022;3.664;2023-03-23T01:33:32;13.70;99.90
56044;DHT22;41912;51.022;3.664;2023-03-23T01:36:01;13.70;99.90
56044;DHT22;41912;51.022;3.664;2023-03-23T01:38:27;13.80;99.90
56044;DHT22;41912;51.022;3.664;2023-03-23T01:40:53;13.70;99.90
56044;DHT22;41912;51.022;3.664;2023-03-23T01:43:19;13.70;99.90
56044;DHT22;41912;51.022;3.664;2023-03-23T01:45:44;13.70;99.90
56044;DHT22;41912;51.022;3.664;2023-03-23T01:51:10;13.70;99.90
56044;DHT22;41912;51.022;3.664;2023-03-23T01:53:45;13.70;99.90
56044;DHT22;41912;51.022;3.664;2023-03-23T01:56:13;13.70;99.90
56044;DHT22;41912;51.022;3.664;2023-03-23T01:58:41;13.70;99.90
56044;DHT22;41912;51.022;3.664;2023-03-23T02:01:12;13.60;99.90
56044;DHT22;41912;51.022;3.664;2023-03-23T02:03:42;13.60;99.90
56044;DHT22;41912;51.022;3.664;2023-03-23T02:06:08;13.60;99.90
56044;DHT22;41912;51.022;3.664;2023-03-23T02:08:34;13.60;99.90
56044;DHT22;41912;51.022;3.664;2023-03-23T02:11:00;13.60;99.90
56044;DHT22;41912;51.022;3.664;2023-03-23T02:13:27;13.60;99.90
56044;DHT22;41912;51.022;3.664;2023-03-23T02:16:06;13.70;99.90
56044;DHT22;41912;51.022;3.664;2023-03-23T02:27:03;13.60;99.90
56044;DHT22;41912;51.022;3.664;2023-03-23T02:30:04;13.60;99.90
56044;DHT22;41912;51.022;3.664;2023-03-23T02:35:37;13.70;99.90
56044;DHT22;41912;51.022;3.664;2023-03-23T02:38:16;13.70;99.90
56044;DHT22;41912;51.022;3.664;2023-03-23T02:40:48;13.60;99.90
56044;DHT22;41912;51.022;3.664;2023-03-23T02:43:17;13.60;99.90
56044;DHT22;41912;51.022;3.664;2023-03-23T02:45:44;13.60;99.90
56044;DHT22;41912;51.022;3.664;2023-03-23T02:48:13;13.70;99.90
56044;DHT22;41912;51.022;3.664;2023-03-23T02:50:42;13.60;99.90
56044;DHT22;41912;51.022;3.664;2023-03-23T02:53:11;13.60;99.90
56044;DHT22;41912;51.022;3.664;2023-03-23T02:55:41;13.60;99.90
56044;DHT22;41912;51.022;3.664;2023-03-23T02:58:08;13.60;99.90
56044;DHT22;41912;51.022;3.664;2023-03-23T03:00:34;13.60;99.90
56044;DHT22;41912;51.022;3.664;2023-03-23T03:03:01;13.70;99.90
56044;DHT22;41912;51.022;3.664;2023-03-23T03:08:50;13.70;99.90
56044;DHT22;41912;51.022;3.664;2023-03-23T03:11:17;13.70;99.90
56044;DHT22;41912;51.022;3.664;2023-03-23T03:14:23;13.70;99.90
56044;DHT22;41912;51.022;3.664;2023-03-23T03:17:03;13.70;99.90
56044;DHT22;41912;51.022;3.664;2023-03-23T03:19:37;13.70;99.90
56044;DHT22;41912;51.022;3.664;2023-03-23T03:22:04;13.70;99.90
56044;DHT22;41912;51.022;3.664;2023-03-23T03:24:31;13.60;99.90
56044;DHT22;41912;51.022;3.664;2023-03-23T03:26:59;13.70;99.90
56044;DHT22;41912;51.022;3.664;2023-03-23T03:29:30;13.60;99.90
56044;DHT22;41912;51.022;3.664;2023-03-23T03:32:00;13.60;99.90
56044;DHT22;41912;51.022;3.664;2023-03-23T03:34:27;13.60;99.90
56044;DHT22;41912;51.022;3.664;2023-03-23T03:36:54;13.60;99.90
56044;DHT22;41912;51.022;3.664;2023-03-23T03:39:24;13.50;99.90
56044;DHT22;41912;51.022;3.664;2023-03-23T03:41:50;13.50;99.90
56044;DHT22;41912;51.022;3.664;2023-03-23T03:44:15;13.60;99.90
56044;DHT22;41912;51.022;3.664;2023-03-23T03:46:41;13.50;99.90
56044;DHT22;41912;51.022;3.664;2023-03-23T03:49:09;13.50;99.90
56044;DHT22;41912;51.022;3.664;2023-03-23T03:51:37;13.40;99.90
56044;DHT22;41912;51.022;3.664;2023-03-23T03:54:03;13.40;99.90
56044;DHT22;41912;51.022;3.664;2023-03-23T03:56:28;13.40;99.90
56044;DHT22;41912;51.022;3.664;2023-03-23T03:58:56;13.40;99.90
56044;DHT22;41912;51.022;3.664;2023-03-23T04:01:22;13.50;99.90
56044;DHT22;41912;51.022;3.664;2023-03-23T04:03:49;13.40;99.90
56044;DHT22;41912;51.022;3.664;2023-03-23T04:06:17;13.50;99.90
56044;DHT22;41912;51.022;3.664;2023-03-23T04:08:43;13.50;99.90
56044;DHT22;41912;51.022;3.664;2023-03-23T04:11:11;13.50;99.90
56044;DHT22;41912;51.022;3.664;2023-03-23T04:13:37;13.50;99.90
56044;DHT22;41912;51.022;3.664;2023-03-23T04:16:04;13.50;99.90
56044;DHT22;41912;51.022;3.664;2023-03-23T04:18:34;13.40;99.90
56044;DHT22;41912;51.022;3.664;2023-03-23T04:21:01;13.40;99.90
56044;DHT22;41912;51.022;3.664;2023-03-23T04:23:29;13.40;99.90
56044;DHT22;41912;51.022;3.664;2023-03-23T04:25:56;13.50;99.90
56044;DHT22;41912;51.022;3.664;2023-03-23T04:28:24;13.50;99.90
56044;DHT22;41912;51.022;3.664;2023-03-23T04:30:51;13.50;99.90
56044;DHT22;41912;51.022;3.664;2023-03-23T04:33:24;13.40;99.90
56044;DHT22;41912;51.022;3.664;2023-03-23T04:35:56;13.40;99.90
56044;DHT22;41912;51.022;3.664;2023-03-23T04:38:23;13.40;99.90
56044;DHT22;41912;51.022;3.664;2023-03-23T04:40:51;13.40;99.90
56044;DHT22;41912;51.022;3.664;2023-03-23T04:43:19;13.40;99.90
56044;DHT22;41912;51.022;3.664;2023-03-23T04:45:47;13.30;99.90
56044;DHT22;41912;51.022;3.664;2023-03-23T04:48:12;13.30;99.90
56044;DHT22;41912;51.022;3.664;2023-03-23T04:50:39;13.40;99.90
56044;DHT22;41912;51.022;3.664;2023-03-23T04:53:05;13.40;99.90
56044;DHT22;41912;51.022;3.664;2023-03-23T04:55:35;13.30;99.90
56044;DHT22;41912;51.022;3.664;2023-03-23T04:58:02;13.20;99.90
56044;DHT22;41912;51.022;3.664;2023-03-23T05:00:28;13.20;99.90
56044;DHT22;41912;51.022;3.664;2023-03-23T05:02:54;13.00;99.90
56044;DHT22;41912;51.022;3.664;2023-03-23T05:05:21;13.20;99.90
56044;DHT22;41912;51.022;3.664;2023-03-23T05:07:47;13.10;99.90
56044;DHT22;41912;51.022;3.664;2023-03-23T05:10:14;13.10;99.90
56044;DHT22;41912;51.022;3.664;2023-03-23T05:12:41;13.10;99.90
56044;DHT22;41912;51.022;3.664;2023-03-23T05:15:08;13.00;99.90
56044;DHT22;41912;51.022;3.664;2023-03-23T05:17:35;13.00;99.90
56044;DHT22;41912;51.022;3.664;2023-03-23T05:20:01;13.00;99.90
56044;DHT22;41912;51.022;3.664;2023-03-23T05:22:30;13.00;99.90
56044;DHT22;41912;51.022;3.664;2023-03-23T05:24:59;12.90;99.90
56044;DHT22;41912;51.022;3.664;2023-03-23T05:27:27;13.00;99.90
56044;DHT22;41912;51.022;3.664;2023-03-23T05:29:56;12.90;99.90
56044;DHT22;41912;51.022;3.664;2023-03-23T05:32:26;13.00;99.90
56044;DHT22;41912;51.022;3.664;2023-03-23T05:35:00;13.00;99.90
56044;DHT22;41912;51.022;3.664;2023-03-23T05:37:27;12.90;99.90
56044;DHT22;41912;51.022;3.664;2023-03-23T05:39:59;12.90;99.90
56044;DHT22;41912;51.022;3.664;2023-03-23T05:42:30;12.90;99.90
56044;DHT22;41912;51.022;3.664;2023-03-23T05:44:56;12.90;99.90
56044;DHT22;41912;51.022;3.664;2023-03-23T05:47:23;12.80;99.90
56044;DHT22;41912;51.022;3.664;2023-03-23T05:49:49;12.80;99.90
56044;DHT22;41912;51.022;3.664;2023-03-23T05:52:14;12.70;99.90
56044;DHT22;41912;51.022;3.664;2023-03-23T05:54:40;12.60;99.90
56044;DHT22;41912;51.022;3.664;2023-03-23T05:57:07;12.50;99.90
56044;DHT22;41912;51.022;3.664;2023-03-23T05:59:34;12.50;99.90
56044;DHT22;41912;51.022;3.664;2023-03-23T06:02:00;12.50;99.90
56044;DHT22;41912;51.022;3.664;2023-03-23T06:04:26;12.40;99.90
56044;DHT22;41912;51.022;3.664;2023-03-23T06:06:52;12.30;99.90
56044;DHT22;41912;51.022;3.664;2023-03-23T06:09:18;12.20;99.90
56044;DHT22;41912;51.022;3.664;2023-03-23T06:11:44;12.20;99.90
56044;DHT22;41912;51.022;3.664;2023-03-23T06:14:10;12.20;99.90
56044;DHT22;41912;51.022;3.664;2023-03-23T06:16:37;12.20;99.90
56044;DHT22;41912;51.022;3.664;2023-03-23T06:19:02;12.10;99.90
56044;DHT22;41912;51.022;3.664;2023-03-23T06:21:30;12.10;99.90
56044;DHT22;41912;51.022;3.664;2023-03-23T06:23:56;12.00;99.90
56044;DHT22;41912;51.022;3.664;2023-03-23T06:26:23;12.00;99.90
56044;DHT22;41912;51.022;3.664;2023-03-23T06:28:50;12.00;99.90
56044;DHT22;41912;51.022;3.664;2023-03-23T06:31:16;11.90;99.90
56044;DHT22;41912;51.022;3.664;2023-03-23T06:33:42;11.90;99.90
56044;DHT22;41912;51.022;3.664;2023-03-23T06:36:09;11.90;99.90
56044;DHT22;41912;51.022;3.664;2023-03-23T06:38:37;11.90;99.90
56044;DHT22;41912;51.022;3.664;2023-03-23T06:41:03;11.80;99.90
56044;DHT22;41912;51.022;3.664;2023-03-23T06:43:28;11.80;99.90
56044;DHT22;41912;51.022;3.664;2023-03-23T06:45:54;11.80;99.90
56044;DHT22;41912;51.022;3.664;2023-03-23T06:48:20;11.70;99.90
56044;DHT22;41912;51.022;3.664;2023-03-23T06:50:46;11.60;99.90
56044;DHT22;41912;51.022;3.664;2023-03-23T06:53:12;11.70;99.90
56044;DHT22;41912;51.022;3.664;2023-03-23T06:55:38;11.80;99.90
56044;DHT22;41912;51.022;3.664;2023-03-23T06:58:05;11.80;99.90
56044;DHT22;41912;51.022;3.664;2023-03-23T07:00:32;11.80;99.90
56044;DHT22;41912;51.022;3.664;2023-03-23T07:02:58;11.60;99.90
56044;DHT22;41912;51.022;3.664;2023-03-23T07:05:24;11.60;99.90
56044;DHT22;41912;51.022;3.664;2023-03-23T07:07:50;11.70;99.90
56044;DHT22;41912;51.022;3.664;2023-03-23T07:10:16;11.60;99.90
56044;DHT22;41912;51.022;3.664;2023-03-23T07:12:42;11.60;99.90
56044;DHT22;41912;51.022;3.664;2023-03-23T07:15:08;11.70;99.90
56044;DHT22;41912;51.022;3.664;2023-03-23T07:17:36;11.70;99.90
56044;DHT22;41912;51.022;3.664;2023-03-23T07:20:03;11.70;99.90
56044;DHT22;41912;51.022;3.664;2023-03-23T07:22:28;11.60;99.90
56044;DHT22;41912;51.022;3.664;2023-03-23T07:24:54;11.60;99.90
56044;DHT22;41912;51.022;3.664;2023-03-23T07:27:20;11.70;99.90
56044;DHT22;41912;51.022;3.664;2023-03-23T07:29:45;11.70;99.90
56044;DHT22;41912;51.022;3.664;2023-03-23T07:32:12;11.80;99.90
56044;DHT22;41912;51.022;3.664;2023-03-23T07:34:38;11.80;99.90
56044;DHT22;41912;51.022;3.664;2023-03-23T07:37:04;11.80;99.90
56044;DHT22;41912;51.022;3.664;2023-03-23T07:39:31;11.80;99.90
56044;DHT22;41912;51.022;3.664;2023-03-23T07:41:57;11.80;99.90
56044;DHT22;41912;51.022;3.664;2023-03-23T07:44:22;11.80;99.90
56044;DHT22;41912;51.022;3.664;2023-03-23T07:46:48;11.90;99.90
56044;DHT22;41912;51.022;3.664;2023-03-23T07:49:14;11.90;99.90
56044;DHT22;41912;51.022;3.664;2023-03-23T07:51:40;11.90;99.90
56044;DHT22;41912;51.022;3.664;2023-03-23T07:54:06;11.90;99.90
56044;DHT22;41912;51.022;3.664;2023-03-23T07:56:33;11.90;99.90
56044;DHT22;41912;51.022;3.664;2023-03-23T07:58:59;11.90;99.90
56044;DHT22;41912;51.022;3.664;2023-03-23T08:01:26;12.00;99.90
56044;DHT22;41912;51.022;3.664;2023-03-23T08:03:52;12.00;99.90
56044;DHT22;41912;51.022;3.664;2023-03-23T08:06:20;12.00;99.90
56044;DHT22;41912;51.022;3.664;2023-03-23T08:08:46;12.10;99.90
56044;DHT22;41912;51.022;3.664;2023-03-23T08:11:12;12.10;99.90
56044;DHT22;41912;51.022;3.664;2023-03-23T08:13:41;12.20;99.90
56044;DHT22;41912;51.022;3.664;2023-03-23T08:16:07;12.20;99.90
56044;DHT22;41912;51.022;3.664;2023-03-23T08:18:35;12.20;99.90
56044;DHT22;41912;51.022;3.664;2023-03-23T08:21:02;12.30;99.90
56044;DHT22;41912;51.022;3.664;2023-03-23T08:23:30;12.40;99.90
56044;DHT22;41912;51.022;3.664;2023-03-23T08:25:56;12.40;99.90
56044;DHT22;41912;51.022;3.664;2023-03-23T08:28:22;12.50;99.90
56044;DHT22;41912;51.022;3.664;2023-03-23T08:30:47;12.50;99.90
56044;DHT22;41912;51.022;3.664;2023-03-23T08:33:14;12.60;99.90
56044;DHT22;41912;51.022;3.664;2023-03-23T08:35:40;12.70;99.90
56044;DHT22;41912;51.022;3.664;2023-03-23T08:38:06;12.80;99.90
56044;DHT22;41912;51.022;3.664;2023-03-23T08:40:32;12.90;99.90
56044;DHT22;41912;51.022;3.664;2023-03-23T08:42:58;13.00;99.90
56044;DHT22;41912;51.022;3.664;2023-03-23T08:45:25;13.10;99.90
56044;DHT22;41912;51.022;3.664;2023-03-23T08:47:52;13.00;99.90
56044;DHT22;41912;51.022;3.664;2023-03-23T08:50:26;13.00;99.90
56044;DHT22;41912;51.022;3.664;2023-03-23T08:52:53;13.10;99.90
56044;DHT22;41912;51.022;3.664;2023-03-23T08:55:20;13.10;99.90
56044;DHT22;41912;51.022;3.664;2023-03-23T08:57:46;13.00;99.90
56044;DHT22;41912;51.022;3.664;2023-03-23T09:00:14;13.10;99.90
56044;DHT22;41912;51.022;3.664;2023-03-23T09:02:45;13.10;99.90
56044;DHT22;41912;51.022;3.664;2023-03-23T09:05:11;13.20;99.90
56044;DHT22;41912;51.022;3.664;2023-03-23T09:07:38;13.30;99.90
56044;DHT22;41912;51.022;3.664;2023-03-23T09:10:04;13.30;99.90
56044;DHT22;41912;51.022;3.664;2023-03-23T09:12:30;13.40;99.90
56044;DHT22;41912;51.022;3.664;2023-03-23T09:14:56;13.40;99.90
56044;DHT22;41912;51.022;3.664;2023-03-23T09:17:22;13.50;99.90
56044;DHT22;41912;51.022;3.664;2023-03-23T09:19:48;13.40;99.90
56044;DHT22;41912;51.022;3.664;2023-03-23T09:22:13;13.50;99.90
56044;DHT22;41912;51.022;3.664;2023-03-23T09:24:40;13.60;99.90
56044;DHT22;41912;51.022;3.664;2023-03-23T09:27:06;13.60;99.90
56044;DHT22;41912;51.022;3.664;2023-03-23T09:29:32;13.70;99.90
56044;DHT22;41912;51.022;3.664;2023-03-23T09:32:00;13.70;99.90
56044;DHT22;41912;51.022;3.664;2023-03-23T09:34:26;13.80;99.90
56044;DHT22;41912;51.022;3.664;2023-03-23T09:36:54;13.80;99.90
56044;DHT22;41912;51.022;3.664;2023-03-23T09:39:20;13.90;99.90
56044;DHT22;41912;51.022;3.664;2023-03-23T09:42:27;13.90;99.90
56044;DHT22;41912;51.022;3.664;2023-03-23T09:45:04;13.90;99.90
56044;DHT22;41912;51.022;3.664;2023-03-23T09:47:37;14.00;99.90
56044;DHT22;41912;51.022;3.664;2023-03-23T09:50:14;14.00;99.90
56044;DHT22;41912;51.022;3.664;2023-03-23T09:55:11;14.00;99.90
56044;DHT22;41912;51.022;3.664;2023-03-23T10:00:37;14.00;99.90
56044;DHT22;41912;51.022;3.664;2023-03-23T10:03:14;14.10;99.90
56044;DHT22;41912;51.022;3.664;2023-03-23T10:05:51;14.20;99.90
56044;DHT22;41912;51.022;3.664;2023-03-23T10:08:19;14.10;99.90
56044;DHT22;41912;51.022;3.664;2023-03-23T10:10:53;14.20;99.90
56044;DHT22;41912;51.022;3.664;2023-03-23T10:14:10;14.10;99.90
56044;DHT22;41912;51.022;3.664;2023-03-23T10:16:29;14.20;99.90
56044;DHT22;41912;51.022;3.664;2023-03-23T10:19:02;14.30;99.90
56044;DHT22;41912;51.022;3.664;2023-03-23T10:21:30;14.30;99.90
56044;DHT22;41912;51.022;3.664;2023-03-23T10:24:03;14.30;99.90
56044;DHT22;41912;51.022;3.664;2023-03-23T10:29:45;14.40;99.90
56044;DHT22;41912;51.022;3.664;2023-03-23T10:32:22;14.30;99.90
56044;DHT22;41912;51.022;3.664;2023-03-23T10:34:59;14.40;99.90
56044;DHT22;41912;51.022;3.664;2023-03-23T10:37:33;14.40;99.90
56044;DHT22;41912;51.022;3.664;2023-03-23T10:40:04;14.40;99.90
56044;DHT22;41912;51.022;3.664;2023-03-23T10:42:36;14.40;99.90
56044;DHT22;41912;51.022;3.664;2023-03-23T10:45:15;14.40;99.90
56044;DHT22;41912;51.022;3.664;2023-03-23T10:47:49;14.30;99.90
56044;DHT22;41912;51.022;3.664;2023-03-23T10:50:21;14.30;99.90
56044;DHT22;41912;51.022;3.664;2023-03-23T10:52:50;14.20;99.90
56044;DHT22;41912;51.022;3.664;2023-03-23T10:55:20;14.10;99.90
56044;DHT22;41912;51.022;3.664;2023-03-23T10:58:03;14.00;99.90
56044;DHT22;41912;51.022;3.664;2023-03-23T11:00:30;14.10;99.90
56044;DHT22;41912;51.022;3.664;2023-03-23T11:05:43;14.10;99.90
56044;DHT22;41912;51.022;3.664;2023-03-23T11:08:15;14.10;99.90
56044;DHT22;41912;51.022;3.664;2023-03-23T11:10:56;14.20;99.90
56044;DHT22;41912;51.022;3.664;2023-03-23T11:13:30;14.20;99.90
56044;DHT22;41912;51.022;3.664;2023-03-23T11:15:57;14.30;99.90
56044;DHT22;41912;51.022;3.664;2023-03-23T11:18:35;14.30;99.90
56044;DHT22;41912;51.022;3.664;2023-03-23T11:21:03;14.30;99.90
56044;DHT22;41912;51.022;3.664;2023-03-23T11:23:32;14.40;99.90
56044;DHT22;41912;51.022;3.664;2023-03-23T11:26:08;14.50;99.90
56044;DHT22;41912;51.022;3.664;2023-03-23T11:28:46;14.50;99.90
56044;DHT22;41912;51.022;3.664;2023-03-23T11:31:13;14.50;99.90
56044;DHT22;41912;51.022;3.664;2023-03-23T11:33:55;14.50;99.90
56044;DHT22;41912;51.022;3.664;2023-03-23T11:36:36;14.50;99.90
56044;DHT22;41912;51.022;3.664;2023-03-23T11:39:18;14.50;99.90
56044;DHT22;41912;51.022;3.664;2023-03-23T11:41:45;14.50;99.90
56044;DHT22;41912;51.022;3.664;2023-03-23T11:44:11;14.60;99.90
56044;DHT22;41912;51.022;3.664;2023-03-23T11:47:49;14.70;99.90
56044;DHT22;41912;51.022;3.664;2023-03-23T11:50:26;14.80;99.90
56044;DHT22;41912;51.022;3.664;2023-03-23T11:53:13;14.90;99.90
56044;DHT22;41912;51.022;3.664;2023-03-23T11:58:16;14.90;99.90
56044;DHT22;41912;51.022;3.664;2023-03-23T12:01:03;14.90;99.90
56044;DHT22;41912;51.022;3.664;2023-03-23T12:06:39;15.00;99.90
56044;DHT22;41912;51.022;3.664;2023-03-23T12:23:15;15.00;99.90
56044;DHT22;41912;51.022;3.664;2023-03-23T12:36:47;15.10;99.90
56044;DHT22;41912;51.022;3.664;2023-03-23T12:44:47;15.20;99.90
56044;DHT22;41912;51.022;3.664;2023-03-23T12:47:36;15.40;99.90
56044;DHT22;41912;51.022;3.664;2023-03-23T12:50:09;15.60;99.90
56044;DHT22;41912;51.022;3.664;2023-03-23T12:52:51;15.60;99.90
56044;DHT22;41912;51.022;3.664;2023-03-23T12:58:25;15.60;99.90
56044;DHT22;41912;51.022;3.664;2023-03-23T13:01:06;15.70;99.90
56044;DHT22;41912;51.022;3.664;2023-03-23T13:03:56;15.80;99.90
56044;DHT22;41912;51.022;3.664;2023-03-23T13:09:19;16.00;99.90
56044;DHT22;41912;51.022;3.664;2023-03-23T13:11:43;16.00;99.90
56044;DHT22;41912;51.022;3.664;2023-03-23T13:25:22;15.90;99.90
56044;DHT22;41912;51.022;3.664;2023-03-23T13:27:58;15.90;99.90
56044;DHT22;41912;51.022;3.664;2023-03-23T13:30:24;15.90;99.90
56044;DHT22;41912;51.022;3.664;2023-03-23T13:32:50;15.90;99.90
56044;DHT22;41912;51.022;3.664;2023-03-23T13:35:19;16.00;99.90
56044;DHT22;41912;51.022;3.664;2023-03-23T13:37:51;16.00;99.90
56044;DHT22;41912;51.022;3.664;2023-03-23T13:40:25;16.00;99.90
56044;DHT22;41912;51.022;3.664;2023-03-23T13:42:54;16.00;99.90
56044;DHT22;41912;51.022;3.664;2023-03-23T13:45:23;16.00;99.90
56044;DHT22;41912;51.022;3.664;2023-03-23T13:48:23;15.90;99.90
56044;DHT22;41912;51.022;3.664;2023-03-23T13:56:20;16.00;99.90
56044;DHT22;41912;51.022;3.664;2023-03-23T13:58:51;16.10;99.90
56044;DHT22;41912;51.022;3.664;2023-03-23T14:01:35;16.30;99.90
56044;DHT22;41912;51.022;3.664;2023-03-23T14:04:19;16.30;99.90
56044;DHT22;41912;51.022;3.664;2023-03-23T14:06:47;16.40;99.90
56044;DHT22;41912;51.022;3.664;2023-03-23T14:09:26;16.40;99.90
56044;DHT22;41912;51.022;3.664;2023-03-23T14:12:00;16.40;99.90
56044;DHT22;41912;51.022;3.664;2023-03-23T14:14:38;16.40;99.90
56044;DHT22;41912;51.022;3.664;2023-03-23T14:17:21;16.40;99.90
56044;DHT22;41912;51.022;3.664;2023-03-23T14:19:50;16.40;99.90
56044;DHT22;41912;51.022;3.664;2023-03-23T14:22:23;16.40;99.90
56044;DHT22;41912;51.022;3.664;2023-03-23T14:24:49;16.40;99.90
56044;DHT22;41912;51.022;3.664;2023-03-23T14:27:18;16.40;99.90
56044;DHT22;41912;51.022;3.664;2023-03-23T14:29:45;16.30;99.90
56044;DHT22;41912;51.022;3.664;2023-03-23T14:32:15;16.30;99.90
56044;DHT22;41912;51.022;3.664;2023-03-23T14:34:42;16.30;99.90
56044;DHT22;41912;51.022;3.664;2023-03-23T14:37:13;16.40;99.90
56044;DHT22;41912;51.022;3.664;2023-03-23T14:39:39;16.60;99.90
56044;DHT22;41912;51.022;3.664;2023-03-23T14:42:09;16.80;99.90
56044;DHT22;41912;51.022;3.664;2023-03-23T14:44:48;17.00;99.90
56044;DHT22;41912;51.022;3.664;2023-03-23T14:47:29;17.10;99.90
56044;DHT22;41912;51.022;3.664;2023-03-23T14:49:57;17.30;99.90
56044;DHT22;41912;51.022;3.664;2023-03-23T14:52:27;17.30;99.90
56044;DHT22;41912;51.022;3.664;2023-03-23T14:54:52;17.30;99.90
56044;DHT22;41912;51.022;3.664;2023-03-23T14:57:26;17.20;99.90
56044;DHT22;41912;51.022;3.664;2023-03-23T14:59:52;17.20;99.90
56044;DHT22;41912;51.022;3.664;2023-03-23T15:02:35;17.20;99.90
56044;DHT22;41912;51.022;3.664;2023-03-23T15:05:11;17.30;99.90
56044;DHT22;41912;51.022;3.664;2023-03-23T15:07:39;17.20;99.90
56044;DHT22;41912;51.022;3.664;2023-03-23T15:10:08;17.20;99.90
56044;DHT22;41912;51.022;3.664;2023-03-23T15:12:38;17.10;99.90
56044;DHT22;41912;51.022;3.664;2023-03-23T15:15:21;16.90;99.90
56044;DHT22;41912;51.022;3.664;2023-03-23T15:17:47;17.00;99.90
56044;DHT22;41912;51.022;3.664;2023-03-23T15:22:48;16.90;99.90
56044;DHT22;41912;51.022;3.664;2023-03-23T15:30:52;16.60;99.90
56044;DHT22;41912;51.022;3.664;2023-03-23T15:33:18;16.60;99.90
56044;DHT22;41912;51.022;3.664;2023-03-23T15:35:52;16.50;99.90
56044;DHT22;41912;51.022;3.664;2023-03-23T15:40:50;16.60;99.90
56044;DHT22;41912;51.022;3.664;2023-03-23T15:43:22;16.60;99.90
56044;DHT22;41912;51.022;3.664;2023-03-23T15:48:22;16.60;99.90
56044;DHT22;41912;51.022;3.664;2023-03-23T15:50:49;16.50;99.90
56044;DHT22;41912;51.022;3.664;2023-03-23T15:53:31;16.40;99.90
56044;DHT22;41912;51.022;3.664;2023-03-23T15:56:02;16.30;99.90
56044;DHT22;41912;51.022;3.664;2023-03-23T15:58:29;16.20;99.90
56044;DHT22;41912;51.022;3.664;2023-03-23T16:00:55;16.00;99.90
56044;DHT22;41912;51.022;3.664;2023-03-23T16:03:31;15.90;99.90
56044;DHT22;41912;51.022;3.664;2023-03-23T16:05:59;15.80;99.90
56044;DHT22;41912;51.022;3.664;2023-03-23T16:08:27;15.80;99.90
56044;DHT22;41912;51.022;3.664;2023-03-23T16:10:53;15.90;99.90
56044;DHT22;41912;51.022;3.664;2023-03-23T16:13:19;16.00;99.90
56044;DHT22;41912;51.022;3.664;2023-03-23T16:15:46;16.00;99.90
56044;DHT22;41912;51.022;3.664;2023-03-23T16:18:20;16.00;99.90
56044;DHT22;41912;51.022;3.664;2023-03-23T16:20:47;16.00;99.90
56044;DHT22;41912;51.022;3.664;2023-03-23T16:23:13;16.00;99.90
56044;DHT22;41912;51.022;3.664;2023-03-23T16:25:39;16.00;99.90
56044;DHT22;41912;51.022;3.664;2023-03-23T16:28:07;16.00;99.90
56044;DHT22;41912;51.022;3.664;2023-03-23T16:30:34;16.00;99.90
56044;DHT22;41912;51.022;3.664;2023-03-23T16:33:00;16.00;99.90
56044;DHT22;41912;51.022;3.664;2023-03-23T16:35:26;16.00;99.90
56044;DHT22;41912;51.022;3.664;2023-03-23T16:37:54;15.90;99.90
56044;DHT22;41912;51.022;3.664;2023-03-23T16:40:21;16.00;99.90
56044;DHT22;41912;51.022;3.664;2023-03-23T16:46:10;16.00;99.90
56044;DHT22;41912;51.022;3.664;2023-03-23T16:48:37;15.90;99.90
56044;DHT22;41912;51.022;3.664;2023-03-23T16:51:02;15.90;99.90
56044;DHT22;41912;51.022;3.664;2023-03-23T16:53:28;15.90;99.90
56044;DHT22;41912;51.022;3.664;2023-03-23T16:55:53;15.90;99.90
56044;DHT22;41912;51.022;3.664;2023-03-23T16:58:21;16.00;99.90
56044;DHT22;41912;51.022;3.664;2023-03-23T17:00:49;16.00;99.90
56044;DHT22;41912;51.022;3.664;2023-03-23T17:03:17;16.00;99.90
56044;DHT22;41912;51.022;3.664;2023-03-23T17:05:43;16.00;99.90
56044;DHT22;41912;51.022;3.664;2023-03-23T17:08:09;15.90;99.90
56044;DHT22;41912;51.022;3.664;2023-03-23T17:10:37;15.90;99.90
56044;DHT22;41912;51.022;3.664;2023-03-23T17:13:03;15.90;99.90
56044;DHT22;41912;51.022;3.664;2023-03-23T17:15:29;16.00;99.90
56044;DHT22;41912;51.022;3.664;2023-03-23T17:17:54;16.00;99.90
56044;DHT22;41912;51.022;3.664;2023-03-23T17:20:21;16.00;99.90
56044;DHT22;41912;51.022;3.664;2023-03-23T17:22:47;16.00;99.90
56044;DHT22;41912;51.022;3.664;2023-03-23T17:25:13;16.00;99.90
56044;DHT22;41912;51.022;3.664;2023-03-23T17:27:39;16.00;99.90
56044;DHT22;41912;51.022;3.664;2023-03-23T17:30:06;16.10;99.90